sensor_id;sensor_type;location;lat;lon;timestamp;pressure;altitude;pressure_sealevel;temperature;humidity
70437;BME280;57877;39.750;-104.894;2023-03-26T00:01:24;83101.23;;;2.87;11.48
70437;BME280;57877;39.750;-104.894;2023-03-26T00:03:50;83094.85;;;2.46;11.10
70437;BME280;57877;39.750;-104.894;2023-03-26T00:06:16;83099.31;;;2.13;11.19
70437;BME280;57877;39.750;-104.894;2023-03-26T00:08:43;83104.29;;;1.49;11.28
70437;BME280;57877;39.750;-104.894;2023-03-26T00:11:09;83109.67;;;0.86;11.72
70437;BME280;57877;39.750;-104.894;2023-03-26T00:13:33;83116.59;;;1.32;11.55
70437;BME280;57877;39.750;-104.894;2023-03-26T00:16:00;83117.21;;;-0.77;12.35
70437;BME280;57877;39.750;-104.894;2023-03-26T00:18:25;83116.25;;;0.06;11.74
70437;BME280;57877;39.750;-104.894;2023-03-26T00:20:51;83117.12;;;-0.53;11.87
70437;BME280;57877;39.750;-104.894;2023-03-26T00:23:16;83126.93;;;-0.20;11.76
70437;BME280;57877;39.750;-104.894;2023-03-26T00:25:42;83123.64;;;-0.62;11.79
70437;BME280;57877;39.750;-104.894;2023-03-26T00:28:09;83131.84;;;-0.53;12.48
70437;BME280;57877;39.750;-104.894;2023-03-26T00:30:34;83134.51;;;-0.20;12.38
70437;BME280;57877;39.750;-104.894;2023-03-26T00:33:00;83140.80;;;0.05;12.59
70437;BME280;57877;39.750;-104.894;2023-03-26T00:35:27;83152.59;;;-0.36;12.63
70437;BME280;57877;39.750;-104.894;2023-03-26T00:37:52;83148.05;;;-0.91;13.15
70437;BME280;57877;39.750;-104.894;2023-03-26T00:40:17;83156.95;;;-0.57;13.20
70437;BME280;57877;39.750;-104.894;2023-03-26T00:42:44;83157.94;;;-0.85;13.21
70437;BME280;57877;39.750;-104.894;2023-03-26T00:45:10;83163.41;;;-0.44;13.07
70437;BME280;57877;39.750;-104.894;2023-03-26T00:47:34;83165.73;;;0.25;12.98
70437;BME280;57877;39.750;-104.894;2023-03-26T00:50:00;83165.36;;;-0.17;13.37
70437;BME280;57877;39.750;-104.894;2023-03-26T00:52:27;83173.82;;;-1.46;13.60
70437;BME280;57877;39.750;-104.894;2023-03-26T00:54:53;83172.93;;;-1.58;13.70
70437;BME280;57877;39.750;-104.894;2023-03-26T00:57:19;83173.29;;;-1.02;13.72
70437;BME280;57877;39.750;-104.894;2023-03-26T01:11:51;83187.29;;;-1.05;14.33
70437;BME280;57877;39.750;-104.894;2023-03-26T01:14:18;83185.54;;;-1.77;14.77
70437;BME280;57877;39.750;-104.894;2023-03-26T01:19:10;83190.10;;;-1.95;15.47
70437;BME280;57877;39.750;-104.894;2023-03-26T01:21:31;83198.33;;;-1.96;15.87
70437;BME280;57877;39.750;-104.894;2023-03-26T01:23:59;83199.58;;;-1.18;15.70
70437;BME280;57877;39.750;-104.894;2023-03-26T01:26:32;83205.13;;;-1.53;15.69
70437;BME280;57877;39.750;-104.894;2023-03-26T01:28:46;83205.11;;;-1.26;15.60
70437;BME280;57877;39.750;-104.894;2023-03-26T01:31:16;83209.16;;;-0.75;15.29
70437;BME280;57877;39.750;-104.894;2023-03-26T01:33:40;83208.07;;;-0.67;15.27
70437;BME280;57877;39.750;-104.894;2023-03-26T01:38:31;83214.94;;;-2.27;16.43
70437;BME280;57877;39.750;-104.894;2023-03-26T01:43:26;83219.17;;;-1.04;15.78
70437;BME280;57877;39.750;-104.894;2023-03-26T01:45:43;83215.41;;;-1.97;15.97
70437;BME280;57877;39.750;-104.894;2023-03-26T01:48:06;83214.55;;;-2.17;16.25
70437;BME280;57877;39.750;-104.894;2023-03-26T01:50:32;83220.95;;;-1.25;15.90
70437;BME280;57877;39.750;-104.894;2023-03-26T01:52:57;83217.86;;;-1.93;16.32
70437;BME280;57877;39.750;-104.894;2023-03-26T01:55:25;83223.12;;;-2.81;16.86
70437;BME280;57877;39.750;-104.894;2023-03-26T01:57:53;83228.64;;;-1.61;16.39
70437;BME280;57877;39.750;-104.894;2023-03-26T02:02:50;83233.47;;;-2.52;17.81
70437;BME280;57877;39.750;-104.894;2023-03-26T02:14:46;83247.64;;;-2.52;18.69
70437;BME280;57877;39.750;-104.894;2023-03-26T02:17:11;83250.59;;;-1.60;18.16
70437;BME280;57877;39.750;-104.894;2023-03-26T02:19:35;83253.04;;;-1.84;17.99
70437;BME280;57877;39.750;-104.894;2023-03-26T02:22:00;83259.60;;;-1.54;17.86
70437;BME280;57877;39.750;-104.894;2023-03-26T02:26:51;83268.69;;;-1.05;17.57
70437;BME280;57877;39.750;-104.894;2023-03-26T02:29:16;83274.95;;;-0.91;17.32
70437;BME280;57877;39.750;-104.894;2023-03-26T02:31:42;83281.09;;;-2.06;18.41
70437;BME280;57877;39.750;-104.894;2023-03-26T02:34:07;83284.09;;;-1.67;18.35
70437;BME280;57877;39.750;-104.894;2023-03-26T02:36:33;83288.29;;;-1.87;18.35
70437;BME280;57877;39.750;-104.894;2023-03-26T02:38:58;83290.16;;;-1.64;18.20
70437;BME280;57877;39.750;-104.894;2023-03-26T02:43:49;83292.64;;;-1.17;18.01
70437;BME280;57877;39.750;-104.894;2023-03-26T02:46:14;83298.69;;;-1.42;18.19
70437;BME280;57877;39.750;-104.894;2023-03-26T02:58:21;83306.14;;;-0.62;17.25
70437;BME280;57877;39.750;-104.894;2023-03-26T03:03:11;83313.25;;;-0.40;17.01
70437;BME280;57877;39.750;-104.894;2023-03-26T03:08:01;83317.65;;;-0.55;17.32
70437;BME280;57877;39.750;-104.894;2023-03-26T03:10:28;83318.74;;;-0.01;17.15
70437;BME280;57877;39.750;-104.894;2023-03-26T03:15:18;83323.99;;;-0.63;17.68
70437;BME280;57877;39.750;-104.894;2023-03-26T03:17:44;83326.49;;;-0.35;17.36
70437;BME280;57877;39.750;-104.894;2023-03-26T03:22:36;83322.71;;;-0.62;17.28
70437;BME280;57877;39.750;-104.894;2023-03-26T03:25:01;83324.42;;;0.04;17.05
70437;BME280;57877;39.750;-104.894;2023-03-26T03:29:51;83321.82;;;0.03;17.18
70437;BME280;57877;39.750;-104.894;2023-03-26T03:32:17;83325.84;;;0.08;17.07
70437;BME280;57877;39.750;-104.894;2023-03-26T03:34:42;83326.82;;;0.27;16.98
70437;BME280;57877;39.750;-104.894;2023-03-26T03:37:08;83325.65;;;-0.03;17.14
70437;BME280;57877;39.750;-104.894;2023-03-26T03:39:34;83327.95;;;-0.02;16.96
70437;BME280;57877;39.750;-104.894;2023-03-26T03:42:00;83329.74;;;0.10;16.95
70437;BME280;57877;39.750;-104.894;2023-03-26T03:44:25;83330.93;;;-0.17;17.10
70437;BME280;57877;39.750;-104.894;2023-03-26T03:46:51;83332.36;;;0.40;16.89
70437;BME280;57877;39.750;-104.894;2023-03-26T03:49:18;83337.58;;;0.54;16.78
70437;BME280;57877;39.750;-104.894;2023-03-26T03:51:43;83339.60;;;0.53;16.70
70437;BME280;57877;39.750;-104.894;2023-03-26T03:54:09;83340.74;;;0.20;16.71
70437;BME280;57877;39.750;-104.894;2023-03-26T03:56:35;83341.36;;;0.01;16.94
70437;BME280;57877;39.750;-104.894;2023-03-26T03:59:01;83342.25;;;0.41;16.61
70437;BME280;57877;39.750;-104.894;2023-03-26T04:03:51;83349.27;;;0.77;16.58
70437;BME280;57877;39.750;-104.894;2023-03-26T04:06:18;83352.42;;;0.49;16.72
70437;BME280;57877;39.750;-104.894;2023-03-26T04:11:07;83354.64;;;0.50;16.60
70437;BME280;57877;39.750;-104.894;2023-03-26T04:13:33;83353.65;;;0.33;16.62
70437;BME280;57877;39.750;-104.894;2023-03-26T04:16:00;83352.20;;;0.61;16.71
70437;BME280;57877;39.750;-104.894;2023-03-26T04:18:25;83354.48;;;0.57;16.70
70437;BME280;57877;39.750;-104.894;2023-03-26T04:23:18;83355.72;;;0.73;16.65
70437;BME280;57877;39.750;-104.894;2023-03-26T04:25:43;83353.54;;;0.44;16.69
70437;BME280;57877;39.750;-104.894;2023-03-26T04:33:00;83349.65;;;0.68;16.80
70437;BME280;57877;39.750;-104.894;2023-03-26T04:35:26;83346.93;;;0.63;16.83
70437;BME280;57877;39.750;-104.894;2023-03-26T04:37:52;83345.37;;;0.57;17.08
70437;BME280;57877;39.750;-104.894;2023-03-26T04:40:20;83344.68;;;0.12;17.04
70437;BME280;57877;39.750;-104.894;2023-03-26T04:42:44;83343.44;;;0.32;17.27
70437;BME280;57877;39.750;-104.894;2023-03-26T04:45:09;83341.52;;;0.02;17.51
70437;BME280;57877;39.750;-104.894;2023-03-26T04:47:34;83342.48;;;0.15;17.69
70437;BME280;57877;39.750;-104.894;2023-03-26T04:49:59;83342.92;;;0.04;17.94
70437;BME280;57877;39.750;-104.894;2023-03-26T04:52:24;83341.17;;;-0.07;18.13
70437;BME280;57877;39.750;-104.894;2023-03-26T04:54:49;83338.57;;;-0.59;18.61
70437;BME280;57877;39.750;-104.894;2023-03-26T04:57:18;83337.45;;;-0.45;18.52
70437;BME280;57877;39.750;-104.894;2023-03-26T04:59:39;83335.81;;;-0.84;18.49
70437;BME280;57877;39.750;-104.894;2023-03-26T05:02:05;83334.53;;;-1.12;19.04
70437;BME280;57877;39.750;-104.894;2023-03-26T05:04:30;83337.82;;;-1.15;19.52
70437;BME280;57877;39.750;-104.894;2023-03-26T05:06:56;83337.46;;;-0.88;19.21
70437;BME280;57877;39.750;-104.894;2023-03-26T05:09:20;83333.96;;;-0.63;19.35
70437;BME280;57877;39.750;-104.894;2023-03-26T05:11:45;83333.65;;;-1.00;19.11
70437;BME280;57877;39.750;-104.894;2023-03-26T05:14:10;83328.49;;;-0.95;18.09
70437;BME280;57877;39.750;-104.894;2023-03-26T05:16:35;83326.39;;;-0.64;17.76
70437;BME280;57877;39.750;-104.894;2023-03-26T05:19:00;83329.00;;;-0.42;17.53
70437;BME280;57877;39.750;-104.894;2023-03-26T05:21:25;83329.08;;;-0.45;17.62
70437;BME280;57877;39.750;-104.894;2023-03-26T05:23:50;83329.40;;;-0.23;17.63
70437;BME280;57877;39.750;-104.894;2023-03-26T05:26:16;83326.00;;;-0.76;17.34
70437;BME280;57877;39.750;-104.894;2023-03-26T05:28:42;83325.72;;;-2.46;17.92
70437;BME280;57877;39.750;-104.894;2023-03-26T05:31:09;83325.99;;;-2.31;18.07
70437;BME280;57877;39.750;-104.894;2023-03-26T05:33:34;83327.20;;;-2.15;18.03
70437;BME280;57877;39.750;-104.894;2023-03-26T05:36:01;83324.79;;;-1.19;17.57
70437;BME280;57877;39.750;-104.894;2023-03-26T05:38:24;83325.39;;;-1.62;17.64
70437;BME280;57877;39.750;-104.894;2023-03-26T05:40:49;83323.87;;;-1.10;17.20
70437;BME280;57877;39.750;-104.894;2023-03-26T05:43:14;83320.67;;;-0.85;17.02
70437;BME280;57877;39.750;-104.894;2023-03-26T05:45:39;83325.09;;;-1.21;17.35
70437;BME280;57877;39.750;-104.894;2023-03-26T05:48:06;83328.04;;;-2.17;18.06
70437;BME280;57877;39.750;-104.894;2023-03-26T05:50:31;83330.32;;;-1.28;17.52
70437;BME280;57877;39.750;-104.894;2023-03-26T05:52:55;83324.92;;;-0.71;17.17
70437;BME280;57877;39.750;-104.894;2023-03-26T05:55:20;83323.46;;;-1.03;17.14
70437;BME280;57877;39.750;-104.894;2023-03-26T05:57:46;83324.59;;;-0.50;17.21
70437;BME280;57877;39.750;-104.894;2023-03-26T06:00:12;83326.45;;;-0.77;17.10
70437;BME280;57877;39.750;-104.894;2023-03-26T06:02:36;83326.58;;;-0.71;17.01
70437;BME280;57877;39.750;-104.894;2023-03-26T06:05:01;83326.00;;;-0.55;16.89
70437;BME280;57877;39.750;-104.894;2023-03-26T06:07:26;83330.18;;;-0.89;17.07
70437;BME280;57877;39.750;-104.894;2023-03-26T06:09:51;83332.08;;;-0.97;17.01
70437;BME280;57877;39.750;-104.894;2023-03-26T06:12:16;83334.14;;;-0.67;16.94
70437;BME280;57877;39.750;-104.894;2023-03-26T06:14:41;83332.27;;;-0.78;16.87
70437;BME280;57877;39.750;-104.894;2023-03-26T06:17:06;83332.12;;;-1.21;17.16
70437;BME280;57877;39.750;-104.894;2023-03-26T06:19:31;83329.40;;;-1.28;17.35
70437;BME280;57877;39.750;-104.894;2023-03-26T06:21:56;83329.75;;;-1.12;17.45
70437;BME280;57877;39.750;-104.894;2023-03-26T06:24:22;83328.77;;;-1.32;17.38
70437;BME280;57877;39.750;-104.894;2023-03-26T06:26:48;83329.70;;;-1.81;18.15
70437;BME280;57877;39.750;-104.894;2023-03-26T06:29:13;83326.20;;;-1.85;18.05
70437;BME280;57877;39.750;-104.894;2023-03-26T06:31:39;83326.70;;;-1.83;18.03
70437;BME280;57877;39.750;-104.894;2023-03-26T06:34:04;83325.67;;;-1.14;17.60
70437;BME280;57877;39.750;-104.894;2023-03-26T06:36:29;83328.20;;;-2.02;18.07
70437;BME280;57877;39.750;-104.894;2023-03-26T06:38:55;83328.57;;;-1.50;17.79
70437;BME280;57877;39.750;-104.894;2023-03-26T06:41:20;83333.93;;;-1.22;17.59
70437;BME280;57877;39.750;-104.894;2023-03-26T06:43:45;83333.52;;;-0.97;17.40
70437;BME280;57877;39.750;-104.894;2023-03-26T06:46:11;83335.75;;;-1.19;17.40
70437;BME280;57877;39.750;-104.894;2023-03-26T06:48:35;83333.81;;;-0.77;17.38
70437;BME280;57877;39.750;-104.894;2023-03-26T06:51:00;83333.69;;;-1.13;17.47
70437;BME280;57877;39.750;-104.894;2023-03-26T06:53:25;83332.13;;;-1.12;17.48
70437;BME280;57877;39.750;-104.894;2023-03-26T06:55:52;83330.77;;;-0.79;17.49
70437;BME280;57877;39.750;-104.894;2023-03-26T06:58:15;83334.00;;;-1.07;17.55
70437;BME280;57877;39.750;-104.894;2023-03-26T07:00:41;83335.80;;;-1.09;17.59
70437;BME280;57877;39.750;-104.894;2023-03-26T07:03:06;83334.19;;;-1.13;17.64
70437;BME280;57877;39.750;-104.894;2023-03-26T07:05:31;83337.86;;;-1.27;17.78
70437;BME280;57877;39.750;-104.894;2023-03-26T07:07:55;83336.86;;;-1.35;17.77
70437;BME280;57877;39.750;-104.894;2023-03-26T07:10:21;83333.44;;;-1.54;17.93
70437;BME280;57877;39.750;-104.894;2023-03-26T07:12:45;83334.38;;;-1.77;18.26
70437;BME280;57877;39.750;-104.894;2023-03-26T07:15:11;83337.91;;;-1.09;17.87
70437;BME280;57877;39.750;-104.894;2023-03-26T07:17:36;83336.07;;;-0.99;17.79
70437;BME280;57877;39.750;-104.894;2023-03-26T07:20:01;83336.75;;;-1.31;17.83
70437;BME280;57877;39.750;-104.894;2023-03-26T07:22:26;83335.52;;;-1.35;17.79
70437;BME280;57877;39.750;-104.894;2023-03-26T07:24:51;83336.79;;;-0.99;17.64
70437;BME280;57877;39.750;-104.894;2023-03-26T07:27:26;83334.90;;;-1.20;17.62
70437;BME280;57877;39.750;-104.894;2023-03-26T07:29:45;83336.59;;;-1.22;17.81
70437;BME280;57877;39.750;-104.894;2023-03-26T07:32:14;83334.41;;;-1.42;17.59
70437;BME280;57877;39.750;-104.894;2023-03-26T07:34:43;83332.08;;;-0.98;17.72
70437;BME280;57877;39.750;-104.894;2023-03-26T07:37:03;83332.93;;;-1.26;17.99
70437;BME280;57877;39.750;-104.894;2023-03-26T07:39:35;83335.97;;;-1.43;17.96
70437;BME280;57877;39.750;-104.894;2023-03-26T07:41:52;83333.58;;;-1.18;17.86
70437;BME280;57877;39.750;-104.894;2023-03-26T07:44:28;83330.78;;;-1.13;18.06
70437;BME280;57877;39.750;-104.894;2023-03-26T07:46:39;83334.84;;;-1.69;18.15
70437;BME280;57877;39.750;-104.894;2023-03-26T07:49:05;83336.82;;;-1.54;18.41
70437;BME280;57877;39.750;-104.894;2023-03-26T07:51:31;83339.32;;;-1.57;18.73
70437;BME280;57877;39.750;-104.894;2023-03-26T07:53:55;83336.45;;;-1.76;18.83
70437;BME280;57877;39.750;-104.894;2023-03-26T07:56:21;83338.38;;;-1.95;19.35
70437;BME280;57877;39.750;-104.894;2023-03-26T07:58:55;83339.87;;;-2.08;19.49
70437;BME280;57877;39.750;-104.894;2023-03-26T08:01:14;83341.82;;;-2.18;19.45
70437;BME280;57877;39.750;-104.894;2023-03-26T08:03:47;83342.12;;;-2.31;19.45
70437;BME280;57877;39.750;-104.894;2023-03-26T08:06:07;83346.05;;;-2.10;19.30
70437;BME280;57877;39.750;-104.894;2023-03-26T08:08:31;83341.98;;;-1.89;19.12
70437;BME280;57877;39.750;-104.894;2023-03-26T08:11:01;83340.46;;;-1.84;19.33
70437;BME280;57877;39.750;-104.894;2023-03-26T08:13:22;83340.54;;;-2.33;19.43
70437;BME280;57877;39.750;-104.894;2023-03-26T08:15:44;83342.26;;;-2.70;19.69
70437;BME280;57877;39.750;-104.894;2023-03-26T08:18:13;83346.04;;;-2.34;19.29
70437;BME280;57877;39.750;-104.894;2023-03-26T08:20:37;83343.40;;;-2.04;19.34
70437;BME280;57877;39.750;-104.894;2023-03-26T08:23:02;83341.94;;;-2.50;19.63
70437;BME280;57877;39.750;-104.894;2023-03-26T08:25:26;83340.16;;;-2.18;19.61
70437;BME280;57877;39.750;-104.894;2023-03-26T08:27:53;83340.18;;;-2.22;19.33
70437;BME280;57877;39.750;-104.894;2023-03-26T08:30:16;83337.82;;;-2.09;19.18
70437;BME280;57877;39.750;-104.894;2023-03-26T08:32:36;83331.00;;;-2.07;18.75
70437;BME280;57877;39.750;-104.894;2023-03-26T08:35:01;83328.68;;;-2.01;18.81
70437;BME280;57877;39.750;-104.894;2023-03-26T08:37:26;83327.58;;;-2.07;18.17
70437;BME280;57877;39.750;-104.894;2023-03-26T08:39:51;83324.92;;;-2.35;18.13
70437;BME280;57877;39.750;-104.894;2023-03-26T08:56:52;83325.15;;;-2.41;18.39
70437;BME280;57877;39.750;-104.894;2023-03-26T09:01:45;83321.58;;;-2.75;19.04
70437;BME280;57877;39.750;-104.894;2023-03-26T09:06:41;83321.74;;;-3.01;19.72
70437;BME280;57877;39.750;-104.894;2023-03-26T09:21:12;83311.96;;;-2.39;19.31
70437;BME280;57877;39.750;-104.894;2023-03-26T09:30:45;83309.23;;;-2.42;18.56
70437;BME280;57877;39.750;-104.894;2023-03-26T09:37:58;83305.83;;;-2.58;17.77
70437;BME280;57877;39.750;-104.894;2023-03-26T09:40:19;83307.96;;;-3.04;17.98
70437;BME280;57877;39.750;-104.894;2023-03-26T09:42:44;83307.39;;;-2.59;17.92
70437;BME280;57877;39.750;-104.894;2023-03-26T09:47:46;83305.21;;;-3.27;18.04
70437;BME280;57877;39.750;-104.894;2023-03-26T09:54:58;83307.68;;;-3.46;18.39
70437;BME280;57877;39.750;-104.894;2023-03-26T09:57:20;83307.10;;;-4.81;19.50
70437;BME280;57877;39.750;-104.894;2023-03-26T10:02:16;83305.54;;;-4.46;19.80
70437;BME280;57877;39.750;-104.894;2023-03-26T10:04:38;83301.02;;;-3.82;19.44
70437;BME280;57877;39.750;-104.894;2023-03-26T10:06:59;83301.96;;;-4.70;20.22
70437;BME280;57877;39.750;-104.894;2023-03-26T10:09:27;83302.89;;;-5.36;20.66
70437;BME280;57877;39.750;-104.894;2023-03-26T10:14:17;83307.75;;;-5.39;21.10
70437;BME280;57877;39.750;-104.894;2023-03-26T10:16:43;83309.67;;;-5.40;21.25
70437;BME280;57877;39.750;-104.894;2023-03-26T10:19:14;83315.28;;;-5.57;21.43
70437;BME280;57877;39.750;-104.894;2023-03-26T10:21:33;83318.97;;;-4.82;20.78
70437;BME280;57877;39.750;-104.894;2023-03-26T10:23:58;83315.97;;;-4.49;20.42
70437;BME280;57877;39.750;-104.894;2023-03-26T10:26:31;83314.09;;;-4.15;20.10
70437;BME280;57877;39.750;-104.894;2023-03-26T10:28:52;83314.71;;;-4.05;19.95
70437;BME280;57877;39.750;-104.894;2023-03-26T10:31:16;83319.03;;;-3.63;19.72
70437;BME280;57877;39.750;-104.894;2023-03-26T10:33:38;83319.04;;;-3.52;19.62
70437;BME280;57877;39.750;-104.894;2023-03-26T10:36:07;83317.23;;;-3.98;19.81
70437;BME280;57877;39.750;-104.894;2023-03-26T10:38:28;83319.15;;;-3.97;19.63
70437;BME280;57877;39.750;-104.894;2023-03-26T10:40:55;83316.93;;;-3.50;19.64
70437;BME280;57877;39.750;-104.894;2023-03-26T10:43:25;83313.84;;;-4.20;20.23
70437;BME280;57877;39.750;-104.894;2023-03-26T10:45:44;83311.14;;;-3.59;19.84
70437;BME280;57877;39.750;-104.894;2023-03-26T10:48:16;83307.78;;;-4.37;20.52
70437;BME280;57877;39.750;-104.894;2023-03-26T10:50:34;83309.73;;;-4.42;20.57
70437;BME280;57877;39.750;-104.894;2023-03-26T10:52:56;83312.90;;;-3.62;20.16
70437;BME280;57877;39.750;-104.894;2023-03-26T10:55:19;83313.27;;;-3.36;19.83
70437;BME280;57877;39.750;-104.894;2023-03-26T10:57:46;83317.54;;;-3.56;20.24
70437;BME280;57877;39.750;-104.894;2023-03-26T11:00:13;83321.37;;;-3.75;20.20
70437;BME280;57877;39.750;-104.894;2023-03-26T11:02:37;83319.65;;;-3.74;20.23
70437;BME280;57877;39.750;-104.894;2023-03-26T11:07:27;83325.03;;;-5.02;20.96
70437;BME280;57877;39.750;-104.894;2023-03-26T11:09:51;83324.58;;;-5.15;21.45
70437;BME280;57877;39.750;-104.894;2023-03-26T11:12:18;83323.73;;;-4.93;21.46
70437;BME280;57877;39.750;-104.894;2023-03-26T11:14:42;83324.90;;;-6.19;22.15
70437;BME280;57877;39.750;-104.894;2023-03-26T11:17:10;83325.78;;;-5.65;22.38
70437;BME280;57877;39.750;-104.894;2023-03-26T11:19:33;83333.54;;;-6.17;22.53
70437;BME280;57877;39.750;-104.894;2023-03-26T11:21:58;83335.88;;;-6.59;22.44
70437;BME280;57877;39.750;-104.894;2023-03-26T11:24:28;83332.57;;;-5.36;21.30
70437;BME280;57877;39.750;-104.894;2023-03-26T11:26:48;83335.18;;;-6.16;21.97
70437;BME280;57877;39.750;-104.894;2023-03-26T11:29:19;83340.22;;;-5.80;21.54
70437;BME280;57877;39.750;-104.894;2023-03-26T11:31:42;83340.90;;;-5.49;21.50
70437;BME280;57877;39.750;-104.894;2023-03-26T11:34:01;83347.79;;;-6.06;21.77
70437;BME280;57877;39.750;-104.894;2023-03-26T11:36:25;83346.03;;;-5.24;21.16
70437;BME280;57877;39.750;-104.894;2023-03-26T11:38:50;83351.82;;;-5.30;20.95
70437;BME280;57877;39.750;-104.894;2023-03-26T11:41:15;83354.41;;;-5.18;20.85
70437;BME280;57877;39.750;-104.894;2023-03-26T11:43:38;83353.53;;;-5.58;21.23
70437;BME280;57877;39.750;-104.894;2023-03-26T11:46:06;83359.77;;;-5.11;20.78
70437;BME280;57877;39.750;-104.894;2023-03-26T11:48:31;83364.03;;;-5.07;20.77
70437;BME280;57877;39.750;-104.894;2023-03-26T11:50:57;83365.20;;;-6.03;21.42
70437;BME280;57877;39.750;-104.894;2023-03-26T11:53:20;83365.60;;;-5.39;20.89
70437;BME280;57877;39.750;-104.894;2023-03-26T11:55:50;83365.78;;;-5.15;21.08
70437;BME280;57877;39.750;-104.894;2023-03-26T11:58:18;83368.16;;;-6.11;21.52
70437;BME280;57877;39.750;-104.894;2023-03-26T12:00:34;83366.33;;;-5.63;21.32
70437;BME280;57877;39.750;-104.894;2023-03-26T12:03:00;83368.90;;;-5.77;21.44
70437;BME280;57877;39.750;-104.894;2023-03-26T12:05:25;83367.29;;;-5.25;21.06
70437;BME280;57877;39.750;-104.894;2023-03-26T12:07:53;83368.63;;;-6.33;21.98
70437;BME280;57877;39.750;-104.894;2023-03-26T12:10:20;83365.58;;;-5.34;21.53
70437;BME280;57877;39.750;-104.894;2023-03-26T12:12:41;83365.84;;;-5.50;21.17
70437;BME280;57877;39.750;-104.894;2023-03-26T12:15:11;83367.19;;;-5.63;21.08
70437;BME280;57877;39.750;-104.894;2023-03-26T12:17:32;83362.95;;;-6.00;21.57
70437;BME280;57877;39.750;-104.894;2023-03-26T12:19:54;83359.66;;;-5.54;21.24
70437;BME280;57877;39.750;-104.894;2023-03-26T12:22:28;83358.20;;;-5.38;21.06
70437;BME280;57877;39.750;-104.894;2023-03-26T12:24:45;83357.42;;;-5.63;21.18
70437;BME280;57877;39.750;-104.894;2023-03-26T12:29:35;83362.66;;;-4.86;20.30
70437;BME280;57877;39.750;-104.894;2023-03-26T12:32:05;83364.04;;;-4.46;20.05
70437;BME280;57877;39.750;-104.894;2023-03-26T12:34:29;83362.26;;;-4.59;19.99
70437;BME280;57877;39.750;-104.894;2023-03-26T12:36:53;83364.78;;;-4.55;19.92
70437;BME280;57877;39.750;-104.894;2023-03-26T12:41:41;83370.77;;;-5.20;20.10
70437;BME280;57877;39.750;-104.894;2023-03-26T12:46:33;83379.80;;;-4.58;19.87
70437;BME280;57877;39.750;-104.894;2023-03-26T12:48:58;83379.80;;;-4.58;19.70
70437;BME280;57877;39.750;-104.894;2023-03-26T12:51:32;83379.03;;;-4.86;19.84
70437;BME280;57877;39.750;-104.894;2023-03-26T12:53:56;83378.05;;;-4.48;19.74
70437;BME280;57877;39.750;-104.894;2023-03-26T12:56:18;83383.19;;;-5.39;20.12
70437;BME280;57877;39.750;-104.894;2023-03-26T12:58:49;83382.01;;;-4.96;20.09
70437;BME280;57877;39.750;-104.894;2023-03-26T13:01:06;83384.46;;;-4.86;20.02
70437;BME280;57877;39.750;-104.894;2023-03-26T13:03:36;83388.74;;;-5.30;20.26
70437;BME280;57877;39.750;-104.894;2023-03-26T13:06:02;83386.85;;;-5.45;20.36
70437;BME280;57877;39.750;-104.894;2023-03-26T13:08:32;83389.03;;;-4.87;20.06
70437;BME280;57877;39.750;-104.894;2023-03-26T13:10:49;83387.98;;;-4.74;20.10
70437;BME280;57877;39.750;-104.894;2023-03-26T13:13:24;83392.87;;;-5.10;20.55
70437;BME280;57877;39.750;-104.894;2023-03-26T13:15:34;83398.48;;;-5.80;21.33
70437;BME280;57877;39.750;-104.894;2023-03-26T13:18:07;83396.28;;;-5.66;21.41
70437;BME280;57877;39.750;-104.894;2023-03-26T13:20:27;83402.06;;;-5.46;21.29
70437;BME280;57877;39.750;-104.894;2023-03-26T13:22:55;83407.36;;;-5.75;21.56
70437;BME280;57877;39.750;-104.894;2023-03-26T13:25:20;83407.06;;;-6.04;21.83
70437;BME280;57877;39.750;-104.894;2023-03-26T13:27:47;83411.16;;;-5.97;22.15
70437;BME280;57877;39.750;-104.894;2023-03-26T13:30:10;83413.79;;;-6.19;22.11
70437;BME280;57877;39.750;-104.894;2023-03-26T13:32:37;83415.01;;;-6.31;22.31
70437;BME280;57877;39.750;-104.894;2023-03-26T13:35:03;83418.15;;;-5.70;22.32
70437;BME280;57877;39.750;-104.894;2023-03-26T13:37:23;83421.62;;;-6.02;22.58
70437;BME280;57877;39.750;-104.894;2023-03-26T13:39:51;83426.07;;;-6.71;23.05
70437;BME280;57877;39.750;-104.894;2023-03-26T13:42:21;83428.52;;;-5.71;22.64
70437;BME280;57877;39.750;-104.894;2023-03-26T13:44:40;83423.24;;;-4.95;22.25
70437;BME280;57877;39.750;-104.894;2023-03-26T13:47:01;83429.40;;;-5.58;22.20
70437;BME280;57877;39.750;-104.894;2023-03-26T13:49:29;83428.02;;;-5.31;22.19
70437;BME280;57877;39.750;-104.894;2023-03-26T13:51:50;83428.14;;;-5.71;22.62
70437;BME280;57877;39.750;-104.894;2023-03-26T13:54:19;83427.13;;;-4.72;21.87
70437;BME280;57877;39.750;-104.894;2023-03-26T13:56:42;83424.76;;;-4.56;21.07
70437;BME280;57877;39.750;-104.894;2023-03-26T13:59:07;83429.66;;;-4.97;21.07
70437;BME280;57877;39.750;-104.894;2023-03-26T14:01:31;83435.10;;;-5.46;21.85
70437;BME280;57877;39.750;-104.894;2023-03-26T14:03:57;83433.10;;;-4.13;20.78
70437;BME280;57877;39.750;-104.894;2023-03-26T14:06:29;83429.17;;;-2.96;19.56
70437;BME280;57877;39.750;-104.894;2023-03-26T14:08:47;83428.95;;;-3.13;19.25
70437;BME280;57877;39.750;-104.894;2023-03-26T14:11:13;83434.11;;;-4.64;20.65
70437;BME280;57877;39.750;-104.894;2023-03-26T14:13:40;83435.95;;;-3.34;19.74
70437;BME280;57877;39.750;-104.894;2023-03-26T14:16:05;83433.47;;;-2.69;18.59
70437;BME280;57877;39.750;-104.894;2023-03-26T14:18:32;83438.14;;;-4.07;19.23
70437;BME280;57877;39.750;-104.894;2023-03-26T14:25:49;83435.59;;;-4.15;19.73
70437;BME280;57877;39.750;-104.894;2023-03-26T14:28:18;83437.59;;;-2.81;18.74
70437;BME280;57877;39.750;-104.894;2023-03-26T14:33:06;83439.51;;;-1.35;17.57
70437;BME280;57877;39.750;-104.894;2023-03-26T14:35:29;83440.39;;;-1.64;17.91
70437;BME280;57877;39.750;-104.894;2023-03-26T14:37:59;83438.01;;;-2.41;17.64
70437;BME280;57877;39.750;-104.894;2023-03-26T14:42:41;83436.61;;;-1.30;16.94
70437;BME280;57877;39.750;-104.894;2023-03-26T14:47:28;83435.87;;;-1.94;17.20